createdAt,value
2018-07-09T00:01:06.152Z,36.40
2018-07-09T00:03:12.488Z,36.24
2018-07-09T00:05:17.786Z,36.50
2018-07-09T00:07:23.092Z,36.05
2018-07-09T00:09:28.518Z,36.18
2018-07-09T00:11:33.873Z,36.39
2018-07-09T00:13:39.555Z,37.11
2018-07-09T00:15:45.033Z,36.81
2018-07-09T00:17:50.463Z,37.60
2018-07-09T00:19:55.913Z,37.52
2018-07-09T00:22:01.336Z,37.31
2018-07-09T00:24:07.167Z,37.70
2018-07-09T00:26:12.546Z,38.06
2018-07-09T00:28:18.994Z,37.58
2018-07-09T00:30:24.593Z,37.84
2018-07-09T00:32:29.924Z,38.45
2018-07-09T00:34:35.322Z,37.61
2018-07-09T00:36:40.777Z,37.43
2018-07-09T00:38:46.179Z,37.79
2018-07-09T00:40:51.464Z,37.58
2018-07-09T00:42:56.896Z,38.08
2018-07-09T00:45:02.295Z,38.23
2018-07-09T00:47:07.732Z,38.23
2018-07-09T00:49:13.407Z,37.56
2018-07-09T00:51:18.836Z,38.16
2018-07-09T00:53:24.232Z,37.32
2018-07-09T00:55:29.776Z,37.51
2018-07-09T00:57:35.532Z,38.08
2018-07-09T00:59:41.045Z,37.41
2018-07-09T01:01:46.434Z,37.45
2018-07-09T01:03:51.868Z,38.07
2018-07-09T01:05:57.320Z,38.71
2018-07-09T01:08:02.720Z,38.49
2018-07-09T01:10:08.151Z,38.34
2018-07-09T01:12:13.921Z,38.19
2018-07-09T01:14:19.302Z,38.35
2018-07-09T01:16:24.800Z,39.22
2018-07-09T01:18:30.263Z,39.34
2018-07-09T01:20:35.663Z,39.06
2018-07-09T01:22:41.060Z,39.18
2018-07-09T01:24:46.584Z,38.62
2018-07-09T01:26:52.267Z,39.20
2018-07-09T01:28:57.751Z,38.94
2018-07-09T01:31:03.139Z,39.15
2018-07-09T01:33:08.580Z,38.87
2018-07-09T01:35:14.564Z,39.18
2018-07-09T01:37:20.066Z,39.04
2018-07-09T01:39:25.520Z,39.25
2018-07-09T01:41:30.941Z,39.64
2018-07-09T01:43:36.326Z,39.38
2018-07-09T01:45:41.657Z,39.91
2018-07-09T01:47:47.085Z,39.82
2018-07-09T01:49:52.462Z,39.50
2018-07-09T01:51:57.841Z,39.62
2018-07-09T01:54:03.412Z,39.79
2018-07-09T01:56:08.844Z,40.24
2018-07-09T01:58:14.234Z,40.03
2018-07-09T02:00:19.566Z,40.16
2018-07-09T02:02:25.190Z,40.74
2018-07-09T02:04:30.569Z,39.92
2018-07-09T02:06:35.917Z,40.69
2018-07-09T02:08:41.793Z,40.62
2018-07-09T02:10:47.128Z,40.90
2018-07-09T02:12:52.640Z,40.88
2018-07-09T02:14:58.055Z,40.58
2018-07-09T02:17:03.473Z,41.21
2018-07-09T02:19:08.785Z,41.22
2018-07-09T02:21:14.195Z,41.02
2018-07-09T02:23:19.604Z,40.70
2018-07-09T02:25:24.778Z,41.76
2018-07-09T02:27:30.512Z,41.39
2018-07-09T02:29:35.957Z,41.39
2018-07-09T02:31:41.384Z,41.07
2018-07-09T02:33:46.827Z,41.38
2018-07-09T02:35:52.181Z,41.37
2018-07-09T02:37:58.254Z,41.56
2018-07-09T02:40:03.733Z,41.86
2018-07-09T02:42:09.278Z,42.04
2018-07-09T02:44:14.751Z,42.14
2018-07-09T02:46:20.126Z,42.17
2018-07-09T02:48:25.584Z,41.34
2018-07-09T02:50:30.933Z,41.50
2018-07-09T02:52:36.397Z,41.42
2018-07-09T02:54:41.873Z,41.44
2018-07-09T02:56:47.361Z,41.87
2018-07-09T02:58:52.789Z,42.39
2018-07-09T03:00:57.919Z,41.83
2018-07-09T03:03:03.144Z,41.85
2018-07-09T03:05:08.714Z,42.46
2018-07-09T03:07:14.171Z,42.64
2018-07-09T03:09:19.722Z,42.11
2018-07-09T03:11:25.334Z,42.91
2018-07-09T03:13:30.786Z,42.13
2018-07-09T03:15:36.242Z,42.76
2018-07-09T03:17:41.681Z,42.81
2018-07-09T03:19:47.096Z,42.34
2018-07-09T03:21:52.540Z,43.21
2018-07-09T03:23:58.081Z,42.43
2018-07-09T03:26:03.449Z,43.20
2018-07-09T03:28:08.941Z,42.64
2018-07-09T03:30:14.410Z,42.60
2018-07-09T03:32:19.868Z,42.99
2018-07-09T03:34:25.388Z,42.75
2018-07-09T03:36:30.833Z,43.34
2018-07-09T03:38:36.498Z,43.21
2018-07-09T03:40:42.042Z,43.11
2018-07-09T03:42:47.448Z,43.57
2018-07-09T03:44:52.890Z,42.80
2018-07-09T03:46:58.308Z,43.26
2018-07-09T03:49:03.771Z,42.94
2018-07-09T03:51:09.166Z,42.92
2018-07-09T03:53:14.637Z,42.99
2018-07-09T03:55:20.196Z,43.89
2018-07-09T03:57:25.570Z,43.22
2018-07-09T03:59:31.039Z,44.04
2018-07-09T04:01:36.548Z,44.22
2018-07-09T04:03:41.949Z,43.96
2018-07-09T04:05:47.571Z,44.03
2018-07-09T04:07:53.209Z,44.07
2018-07-09T04:09:58.232Z,44.34
2018-07-09T04:12:03.280Z,43.78
2018-07-09T04:14:08.770Z,43.67
2018-07-09T04:16:14.323Z,44.22
2018-07-09T04:18:23.268Z,44.33
2018-07-09T04:20:28.759Z,44.63
2018-07-09T04:22:34.277Z,44.05
2018-07-09T04:24:39.909Z,44.56
2018-07-09T04:26:45.256Z,44.13
2018-07-09T04:28:50.845Z,44.12
2018-07-09T04:30:56.270Z,43.67
2018-07-09T04:33:01.673Z,43.91
2018-07-09T04:35:07.145Z,44.12
2018-07-09T04:37:12.540Z,44.63
2018-07-09T04:39:18.000Z,44.14
2018-07-09T04:41:23.462Z,44.81
2018-07-09T04:43:28.880Z,44.81
2018-07-09T04:45:34.276Z,44.66
2018-07-09T04:47:39.643Z,44.67
2018-07-09T04:49:45.037Z,44.21
2018-07-09T04:51:50.585Z,43.95
2018-07-09T04:53:56.192Z,44.51
2018-07-09T04:56:01.562Z,44.24
2018-07-09T04:58:07.015Z,44.77
2018-07-09T05:00:12.398Z,44.35
2018-07-09T05:02:17.779Z,44.95
2018-07-09T05:04:23.257Z,44.93
2018-07-09T05:06:28.724Z,44.82
2018-07-09T05:08:34.172Z,44.92
2018-07-09T05:10:39.562Z,44.22
2018-07-09T05:12:44.697Z,44.66
2018-07-09T05:14:50.184Z,44.12
2018-07-09T05:16:55.510Z,43.99
2018-07-09T05:19:01.091Z,44.15
2018-07-09T05:21:06.576Z,44.54
2018-07-09T05:23:12.053Z,43.84
2018-07-09T05:25:17.557Z,44.42
2018-07-09T05:27:23.048Z,44.22
2018-07-09T05:29:28.472Z,43.92
2018-07-09T05:31:33.871Z,44.60
2018-07-09T05:33:39.008Z,43.87
2018-07-09T05:35:44.339Z,43.57
2018-07-09T05:37:50.018Z,44.29
2018-07-09T05:39:55.689Z,43.68
2018-07-09T05:42:01.062Z,44.33
2018-07-09T05:44:06.486Z,44.25
2018-07-09T05:46:13.029Z,43.93
2018-07-09T05:48:18.657Z,43.22
2018-07-09T05:50:24.078Z,43.95
2018-07-09T05:52:29.845Z,43.10
2018-07-09T05:54:35.491Z,43.81
2018-07-09T05:56:41.063Z,42.83
2018-07-09T05:58:46.796Z,43.08
2018-07-09T06:00:52.305Z,43.50
2018-07-09T06:02:57.759Z,42.61
2018-07-09T06:05:03.330Z,42.99
2018-07-09T06:07:08.640Z,43.10
2018-07-09T06:09:14.284Z,42.95
2018-07-09T06:11:19.710Z,42.77
2018-07-09T06:13:25.202Z,42.90
2018-07-09T06:15:30.775Z,42.52
2018-07-09T06:17:36.295Z,42.66
2018-07-09T06:19:41.909Z,42.25
2018-07-09T06:21:47.273Z,41.65
2018-07-09T06:23:52.688Z,42.12
2018-07-09T06:25:58.055Z,41.24
2018-07-09T06:28:03.488Z,40.34
2018-07-09T06:30:09.089Z,39.27
2018-07-09T06:32:14.462Z,39.37
2018-07-09T06:34:19.895Z,38.65
2018-07-09T06:36:25.552Z,37.54
2018-07-09T06:38:31.116Z,36.88
2018-07-09T06:40:36.617Z,35.82
2018-07-09T06:42:42.006Z,35.26
2018-07-09T06:44:47.568Z,34.85
2018-07-09T06:46:52.867Z,34.03
2018-07-09T06:48:58.296Z,33.63
2018-07-09T06:51:03.703Z,33.34
2018-07-09T06:53:09.248Z,33.24
2018-07-09T06:55:14.725Z,32.67
2018-07-09T06:57:20.243Z,32.09
2018-07-09T06:59:25.543Z,32.60
2018-07-09T07:01:31.060Z,32.07
2018-07-09T07:03:36.666Z,31.95
2018-07-09T07:05:42.259Z,30.93
2018-07-09T07:07:47.644Z,30.91
2018-07-09T07:09:53.378Z,30.73
2018-07-09T07:11:58.846Z,30.33
2018-07-09T07:14:04.320Z,29.71
2018-07-09T07:16:09.661Z,30.33
2018-07-09T07:18:14.990Z,29.61
2018-07-09T07:20:20.472Z,29.23
2018-07-09T07:22:25.783Z,29.16
2018-07-09T07:24:31.266Z,29.42
2018-07-09T07:26:36.737Z,29.39
2018-07-09T07:28:42.115Z,28.95
2018-07-09T07:30:47.612Z,29.08
2018-07-09T07:32:53.037Z,28.83
2018-07-09T07:34:58.322Z,28.90
2018-07-09T07:37:03.691Z,28.32
2018-07-09T07:39:09.056Z,28.41
2018-07-09T07:41:14.445Z,27.88
2018-07-09T07:43:19.991Z,27.66
2018-07-09T07:45:25.345Z,28.28
2018-07-09T07:47:30.939Z,27.59
2018-07-09T07:49:36.308Z,27.77
2018-07-09T07:51:41.708Z,27.11
2018-07-09T07:53:47.087Z,27.59
2018-07-09T07:55:52.461Z,27.80
2018-07-09T07:57:57.825Z,27.90
2018-07-09T08:00:03.310Z,28.07
2018-07-09T08:02:09.004Z,27.97
2018-07-09T08:04:14.401Z,29.11
2018-07-09T08:06:19.729Z,29.14
2018-07-09T08:08:25.121Z,28.16
2018-07-09T08:10:30.499Z,28.17
2018-07-09T08:13:31.303Z,28.95
2018-07-09T08:14:41.436Z,29.26
2018-07-09T08:16:46.863Z,29.50
2018-07-09T08:18:51.934Z,29.53
2018-07-09T08:20:57.318Z,29.36
2018-07-09T08:23:02.433Z,29.04
2018-07-09T08:25:07.626Z,29.19
2018-07-09T08:27:12.904Z,29.47
2018-07-09T08:29:18.296Z,28.74
2018-07-09T08:31:24.036Z,28.50
2018-07-09T08:33:29.373Z,29.18
2018-07-09T08:35:34.899Z,29.57
2018-07-09T08:37:40.323Z,29.65
2018-07-09T08:39:45.546Z,29.00
2018-07-09T08:41:50.811Z,28.93
2018-07-09T08:43:56.279Z,29.90
2018-07-09T08:46:02.219Z,30.32
2018-07-09T08:48:07.588Z,30.16
2018-07-09T08:50:13.061Z,29.77
2018-07-09T08:52:18.402Z,29.72
2018-07-09T08:54:23.786Z,29.91
2018-07-09T08:56:29.148Z,30.53
2018-07-09T08:58:34.486Z,29.73
2018-07-09T09:00:39.835Z,30.45
2018-07-09T09:02:45.160Z,30.13
2018-07-09T09:04:50.609Z,29.88
2018-07-09T09:06:56.349Z,30.76
2018-07-09T09:09:01.709Z,30.53
2018-07-09T09:11:06.998Z,30.07
2018-07-09T09:13:12.319Z,29.75
2018-07-09T09:15:17.829Z,30.57
2018-07-09T09:17:23.179Z,30.79
2018-07-09T09:19:28.575Z,30.20
2018-07-09T09:21:33.912Z,29.60
2018-07-09T09:23:39.257Z,31.40
2018-07-09T09:25:44.611Z,30.00
2018-07-09T09:27:50.349Z,30.20
2018-07-09T09:29:55.689Z,30.74
2018-07-09T09:32:01.044Z,30.72
2018-07-09T09:34:06.461Z,29.74
2018-07-09T09:36:11.863Z,30.75
2018-07-09T09:38:17.178Z,29.54
2018-07-09T09:40:22.541Z,30.39
2018-07-09T09:42:27.883Z,29.64
2018-07-09T09:44:33.176Z,30.70
2018-07-09T09:46:39.003Z,29.99
2018-07-09T09:48:44.380Z,30.01
2018-07-09T09:50:51.325Z,30.16
2018-07-09T09:52:56.384Z,29.44
2018-07-09T09:55:01.719Z,30.02
2018-07-09T09:57:07.157Z,29.45
2018-07-09T09:59:12.501Z,29.34
2018-07-09T10:01:17.872Z,29.26
2018-07-09T10:03:23.197Z,29.31
2018-07-09T10:05:28.563Z,30.48
2018-07-09T10:07:34.008Z,30.31
2018-07-09T10:09:39.393Z,29.28
2018-07-09T10:11:44.853Z,30.02
2018-07-09T10:13:50.472Z,29.38
2018-07-09T10:15:56.407Z,30.00
2018-07-09T10:18:01.782Z,29.90
2018-07-09T10:20:07.199Z,29.48
2018-07-09T10:22:12.528Z,29.74
2018-07-09T10:24:17.949Z,29.21
2018-07-09T10:26:23.012Z,29.84
2018-07-09T10:28:28.323Z,30.01
2018-07-09T10:30:33.662Z,30.10
2018-07-09T10:32:39.079Z,29.31
2018-07-09T10:34:44.385Z,29.67
2018-07-09T10:36:50.246Z,29.65
2018-07-09T10:38:55.839Z,29.01
2018-07-09T10:41:01.304Z,29.65
2018-07-09T10:43:06.690Z,29.13
2018-07-09T10:45:11.697Z,29.32
2018-07-09T10:47:16.934Z,29.26
2018-07-09T10:49:22.310Z,29.53
2018-07-09T10:51:27.616Z,29.87
2018-07-09T10:53:33.031Z,29.24
2018-07-09T10:55:38.472Z,29.79
2018-07-09T10:57:43.795Z,29.99
2018-07-09T10:59:50.781Z,28.73
2018-07-09T11:01:56.235Z,29.70
2018-07-09T11:04:01.560Z,29.27
2018-07-09T11:06:07.118Z,28.93
2018-07-09T11:08:12.682Z,29.00
2018-07-09T11:10:18.036Z,28.95
2018-07-09T11:12:23.388Z,29.10
2018-07-09T11:14:28.743Z,28.68
2018-07-09T11:16:34.084Z,28.92
2018-07-09T11:18:39.475Z,28.55
2018-07-09T11:20:44.888Z,28.78
2018-07-09T11:22:50.233Z,28.48
2018-07-09T11:24:55.147Z,29.42
2018-07-09T11:27:00.429Z,29.52
2018-07-09T11:29:05.816Z,29.20
2018-07-09T11:31:11.221Z,29.34
2018-07-09T11:33:16.596Z,29.65
2018-07-09T11:35:21.922Z,28.39
2018-07-09T11:37:27.352Z,29.23
2018-07-09T11:39:32.743Z,29.18
2018-07-09T11:41:38.089Z,28.29
2018-07-09T11:43:43.372Z,28.24
2018-07-09T11:45:48.798Z,28.24
2018-07-09T11:47:54.131Z,29.19
2018-07-09T11:49:59.503Z,29.47
2018-07-09T11:52:04.916Z,28.66
2018-07-09T11:54:10.228Z,28.84
2018-07-09T11:56:15.620Z,29.10
2018-07-09T11:58:21.048Z,29.19
2018-07-09T12:00:26.362Z,28.60
2018-07-09T12:02:31.732Z,27.97
2018-07-09T12:04:37.129Z,28.33
2018-07-09T12:06:42.528Z,28.58
2018-07-09T12:08:47.853Z,28.30
2018-07-09T12:10:53.233Z,28.40
2018-07-09T12:12:58.606Z,28.53
2018-07-09T12:15:04.092Z,28.41
2018-07-09T12:17:09.676Z,28.95
2018-07-09T12:19:15.541Z,28.92
2018-07-09T12:21:21.099Z,28.29
2018-07-09T12:23:26.087Z,28.84
2018-07-09T12:25:31.389Z,27.64
2018-07-09T12:27:36.699Z,28.86
2018-07-09T12:29:42.052Z,27.87
2018-07-09T12:31:47.483Z,28.56
2018-07-09T12:33:52.810Z,27.77
2018-07-09T12:35:58.221Z,27.57
2018-07-09T12:38:03.604Z,27.27
2018-07-09T12:40:09.037Z,27.41
2018-07-09T12:42:14.405Z,27.82
2018-07-09T12:44:19.793Z,27.62
2018-07-09T12:46:25.264Z,27.62
2018-07-09T12:48:30.574Z,27.78
2018-07-09T12:50:35.847Z,26.70
2018-07-09T12:52:41.190Z,26.96
2018-07-09T12:54:46.520Z,26.85
2018-07-09T12:56:52.087Z,26.91
2018-07-09T12:58:57.447Z,27.33
2018-07-09T13:01:02.809Z,27.84
2018-07-09T13:03:08.178Z,27.01
2018-07-09T13:05:13.568Z,26.56
2018-07-09T13:07:18.967Z,27.15
2018-07-09T13:09:24.341Z,27.62
2018-07-09T13:11:29.912Z,26.71
2018-07-09T13:13:35.289Z,26.89
2018-07-09T13:15:40.711Z,27.14
2018-07-09T13:17:46.073Z,27.22
2018-07-09T13:19:51.409Z,26.06
2018-07-09T13:21:56.980Z,26.41
2018-07-09T13:24:02.448Z,26.19
2018-07-09T13:26:07.839Z,26.10
2018-07-09T13:28:13.223Z,26.03
2018-07-09T13:30:18.665Z,26.79
2018-07-09T13:32:24.122Z,26.62
2018-07-09T13:34:29.508Z,26.27
2018-07-09T13:36:34.963Z,26.96
2018-07-09T13:38:40.730Z,27.10
2018-07-09T13:40:46.147Z,26.00
2018-07-09T13:42:51.589Z,27.03
2018-07-09T13:44:57.009Z,26.03
2018-07-09T13:47:02.360Z,26.24
2018-07-09T13:49:08.513Z,26.14
2018-07-09T13:51:13.825Z,26.27
2018-07-09T13:53:19.730Z,26.86
2018-07-09T13:55:25.152Z,26.30
2018-07-09T13:57:30.613Z,27.24
2018-07-09T13:59:36.041Z,26.86
2018-07-09T14:01:41.432Z,26.58
2018-07-09T14:03:46.853Z,26.20
2018-07-09T14:05:52.524Z,25.45
2018-07-09T14:07:57.881Z,25.45
2018-07-09T14:10:03.335Z,25.28
2018-07-09T14:12:09.037Z,26.05
2018-07-09T14:14:14.373Z,25.71
2018-07-09T14:16:19.754Z,25.09
2018-07-09T14:18:25.096Z,25.19
2018-07-09T14:20:36.465Z,26.28
2018-07-09T14:22:42.121Z,26.07
2018-07-09T14:24:47.560Z,26.41
2018-07-09T14:26:53.022Z,25.68
2018-07-09T14:28:58.416Z,26.29
2018-07-09T14:31:03.889Z,26.53
2018-07-09T14:33:09.472Z,26.46
2018-07-09T14:35:14.876Z,26.06
2018-07-09T14:37:20.259Z,25.42
2018-07-09T14:39:26.088Z,25.32
2018-07-09T14:41:31.743Z,25.26
2018-07-09T14:43:37.184Z,25.22
2018-07-09T14:45:42.788Z,25.32
2018-07-09T14:47:47.922Z,25.41
2018-07-09T14:49:53.265Z,25.03
2018-07-09T14:51:58.723Z,25.79
2018-07-09T14:54:04.211Z,26.11
2018-07-09T14:56:09.602Z,25.43
2018-07-09T14:58:15.067Z,25.47
2018-07-09T15:00:20.490Z,25.39
2018-07-09T15:02:25.996Z,24.89
2018-07-09T15:04:31.406Z,24.86
2018-07-09T15:06:36.808Z,25.48
2018-07-09T15:08:42.316Z,24.75
2018-07-09T15:10:47.815Z,24.39
2018-07-09T15:12:53.233Z,25.69
2018-07-09T15:14:58.689Z,25.61
2018-07-09T15:17:04.941Z,25.76
2018-07-09T15:19:10.330Z,25.35
2018-07-09T15:21:15.705Z,25.74
2018-07-09T15:23:21.272Z,25.14
2018-07-09T15:25:26.742Z,24.82
2018-07-09T15:27:32.091Z,24.99
2018-07-09T15:29:37.161Z,25.39
2018-07-09T15:31:59.311Z,25.15
2018-07-09T15:34:04.861Z,24.28
2018-07-09T15:36:10.525Z,24.70
2018-07-09T15:38:16.024Z,24.27
2018-07-09T15:40:21.524Z,24.08
2018-07-09T15:42:27.027Z,24.91
2018-07-09T15:44:32.400Z,24.66
2018-07-09T15:46:37.851Z,24.35
2018-07-09T15:48:42.969Z,24.66
2018-07-09T15:50:48.416Z,23.95
2018-07-09T15:52:53.581Z,24.17
2018-07-09T15:54:59.043Z,23.73
2018-07-09T15:57:04.630Z,24.24
2018-07-09T15:59:10.003Z,24.00
2018-07-09T16:01:15.467Z,23.80
2018-07-09T16:03:20.865Z,23.92
2018-07-09T16:05:26.226Z,23.77
2018-07-09T16:07:31.704Z,23.88
2018-07-09T16:09:37.059Z,23.75
2018-07-09T16:11:42.505Z,24.58
2018-07-09T16:13:48.807Z,23.83
2018-07-09T16:15:54.192Z,23.60
2018-07-09T16:17:59.587Z,24.22
2018-07-09T16:20:04.969Z,23.45
2018-07-09T16:22:10.377Z,24.22
2018-07-09T16:24:15.830Z,23.53
2018-07-09T16:26:21.220Z,23.52
2018-07-09T16:28:26.614Z,22.91
2018-07-09T16:30:32.013Z,23.48
2018-07-09T16:32:37.342Z,23.07
2018-07-09T16:34:42.723Z,22.63
2018-07-09T16:36:48.175Z,22.92
2018-07-09T16:38:53.620Z,22.99
2018-07-09T16:40:58.846Z,22.75
2018-07-09T16:43:04.175Z,22.91
2018-07-09T16:45:09.572Z,22.19
2018-07-09T16:47:14.939Z,23.52
2018-07-09T16:49:20.325Z,23.01
2018-07-09T16:51:25.774Z,23.57
2018-07-09T16:53:31.181Z,23.59
2018-07-09T16:55:36.724Z,23.22
2018-07-09T16:57:42.149Z,23.15
2018-07-09T16:59:47.602Z,22.89
2018-07-09T17:01:53.111Z,23.31
2018-07-09T17:03:58.524Z,22.77
2018-07-09T17:06:03.878Z,23.35
2018-07-09T17:08:10.161Z,23.56
2018-07-09T17:10:15.556Z,24.32
2018-07-09T17:12:20.948Z,23.76
2018-07-09T17:14:26.390Z,24.51
2018-07-09T17:16:31.809Z,23.64
2018-07-09T17:18:37.290Z,23.97
2018-07-09T17:20:42.773Z,24.39
2018-07-09T17:22:48.207Z,24.57
2018-07-09T17:24:53.697Z,24.36
2018-07-09T17:26:59.287Z,24.14
2018-07-09T17:29:04.555Z,23.85
2018-07-09T17:31:09.911Z,23.83
2018-07-09T17:33:15.346Z,23.87
2018-07-09T17:35:20.700Z,24.56
2018-07-09T17:37:26.109Z,24.89
2018-07-09T17:39:31.445Z,24.35
2018-07-09T17:41:36.913Z,24.97
2018-07-09T17:43:42.249Z,23.84
2018-07-09T17:45:47.805Z,24.24
2018-07-09T17:47:53.284Z,24.79
2018-07-09T17:49:58.868Z,24.29
2018-07-09T17:52:04.307Z,24.52
2018-07-09T17:54:09.858Z,25.34
2018-07-09T17:56:15.255Z,24.28
2018-07-09T17:58:20.778Z,25.01
2018-07-09T18:00:26.163Z,24.29
2018-07-09T18:02:31.562Z,25.31
2018-07-09T18:04:36.981Z,24.42
2018-07-09T18:06:42.387Z,24.86
2018-07-09T18:08:47.443Z,24.77
2018-07-09T18:10:52.839Z,25.44
2018-07-09T18:12:58.822Z,25.04
2018-07-09T18:15:04.305Z,24.90
2018-07-09T18:17:09.830Z,25.79
2018-07-09T18:19:15.243Z,25.59
2018-07-09T18:21:20.842Z,25.06
2018-07-09T18:23:26.290Z,25.89
2018-07-09T18:25:31.903Z,25.85
2018-07-09T18:27:37.252Z,26.02
2018-07-09T18:29:42.632Z,26.10
2018-07-09T18:31:48.059Z,25.60
2018-07-09T18:33:53.428Z,26.85
2018-07-09T18:35:58.836Z,25.59
2018-07-09T18:38:04.271Z,27.18
2018-07-09T18:40:09.737Z,26.46
2018-07-09T18:42:15.157Z,26.97
2018-07-09T18:44:20.603Z,26.21
2018-07-09T18:46:26.021Z,27.24
2018-07-09T18:48:31.497Z,26.11
2018-07-09T18:50:36.993Z,27.33
2018-07-09T18:52:45.244Z,27.62
2018-07-09T18:54:51.708Z,27.37
2018-07-09T18:56:57.409Z,27.58
2018-07-09T18:59:02.903Z,26.95
2018-07-09T19:01:08.423Z,27.26
2018-07-09T19:03:13.843Z,27.03
2018-07-09T19:05:21.464Z,26.98
2018-07-09T19:07:32.258Z,27.91
2018-07-09T19:09:38.183Z,27.74
2018-07-09T19:11:43.895Z,27.76
2018-07-09T19:13:49.466Z,28.67
2018-07-09T19:15:55.020Z,27.61
2018-07-09T19:18:19.270Z,27.57
2018-07-09T19:22:36.472Z,27.77
2018-07-09T19:24:40.110Z,27.88
2018-07-09T19:26:44.122Z,27.57
2018-07-09T19:28:47.775Z,27.66
2018-07-09T19:30:51.350Z,28.49
2018-07-09T19:32:54.933Z,28.57
2018-07-09T19:34:58.649Z,29.03
2018-07-09T19:37:02.386Z,28.57
2018-07-09T19:39:06.791Z,28.40
2018-07-09T19:41:10.631Z,28.32
2018-07-09T19:43:14.267Z,28.71
2018-07-09T19:45:17.881Z,28.10
2018-07-09T19:47:21.496Z,28.29
2018-07-09T19:49:25.414Z,28.02
2018-07-09T19:51:28.966Z,29.23
2018-07-09T19:53:32.587Z,29.46
2018-07-09T19:55:36.449Z,28.83
2018-07-09T19:57:39.947Z,29.30
2018-07-09T19:59:43.782Z,29.57
2018-07-09T20:01:47.387Z,29.10
2018-07-09T20:03:51.003Z,28.57
2018-07-09T20:05:54.610Z,29.86
2018-07-09T20:07:58.462Z,29.30
2018-07-09T20:10:07.146Z,29.20
2018-07-09T20:12:15.851Z,29.43
2018-07-09T20:14:24.609Z,29.13
2018-07-09T20:16:33.390Z,29.39
2018-07-09T20:18:37.000Z,30.00
2018-07-09T20:20:40.573Z,29.69
2018-07-09T20:22:44.136Z,29.94
2018-07-09T20:24:47.749Z,30.56
2018-07-09T20:26:51.415Z,29.99
2018-07-09T20:28:55.058Z,29.90
2018-07-09T20:30:58.658Z,30.83
2018-07-09T20:33:02.240Z,30.95
2018-07-09T20:35:05.797Z,30.42
2018-07-09T20:37:09.424Z,30.80
2018-07-09T20:39:13.098Z,31.48
2018-07-09T20:41:16.812Z,30.74
2018-07-09T20:43:20.419Z,31.47
2018-07-09T20:45:24.285Z,31.58
2018-07-09T20:47:28.069Z,31.74
2018-07-09T20:49:31.683Z,30.95
2018-07-09T20:51:35.294Z,31.95
2018-07-09T20:53:38.889Z,31.35
2018-07-09T20:55:42.486Z,32.08
2018-07-09T20:57:46.105Z,31.79
2018-07-09T20:59:49.975Z,31.47
2018-07-09T21:01:53.610Z,31.70
2018-07-09T21:04:02.253Z,32.64
2018-07-09T21:06:05.944Z,32.91
2018-07-09T21:08:09.556Z,32.35
2018-07-09T21:10:13.207Z,32.99
2018-07-09T21:12:16.801Z,32.15
2018-07-09T21:14:20.382Z,32.41
2018-07-09T21:16:24.099Z,32.84
2018-07-09T21:18:27.664Z,32.67
2018-07-09T21:20:31.244Z,32.56
2018-07-09T21:22:34.795Z,32.64
2018-07-09T21:24:38.390Z,32.59
2018-07-09T21:26:41.965Z,33.25
2018-07-09T21:28:45.588Z,32.68
2018-07-09T21:30:50.106Z,32.59
2018-07-09T21:32:53.708Z,33.46
2018-07-09T21:34:57.322Z,32.75
2018-07-09T21:37:00.883Z,33.61
2018-07-09T21:39:05.170Z,33.85
2018-07-09T21:41:08.872Z,33.85
2018-07-09T21:43:12.454Z,32.97
2018-07-09T21:45:16.063Z,33.95
2018-07-09T21:47:19.641Z,33.94
2018-07-09T21:49:23.217Z,33.15
2018-07-09T21:51:26.808Z,33.57
2018-07-09T21:53:30.423Z,33.75
2018-07-09T21:55:33.994Z,33.90
2018-07-09T21:57:37.558Z,33.50
2018-07-09T21:59:41.129Z,33.85
2018-07-09T22:01:44.730Z,33.48
2018-07-09T22:03:48.313Z,34.68
2018-07-09T22:05:51.875Z,34.45
2018-07-09T22:07:55.435Z,33.84
2018-07-09T22:09:59.260Z,34.29
2018-07-09T22:12:02.733Z,33.92
2018-07-09T22:14:06.389Z,34.99
2018-07-09T22:16:09.949Z,34.36
2018-07-09T22:18:13.529Z,34.45
2018-07-09T22:20:17.101Z,34.64
2018-07-09T22:22:20.739Z,35.16
2018-07-09T22:24:24.388Z,34.86
2018-07-09T22:26:27.974Z,35.43
2018-07-09T22:28:31.561Z,35.68
2018-07-09T22:30:36.925Z,35.76
2018-07-09T22:32:42.273Z,35.11
2018-07-09T22:34:47.665Z,35.49
2018-07-09T22:36:53.089Z,36.21
2018-07-09T22:38:58.397Z,35.49
2018-07-09T22:41:03.748Z,36.38
2018-07-09T22:44:19.609Z,36.36
2018-07-09T22:46:24.648Z,36.30
2018-07-09T22:48:29.893Z,35.91
2018-07-09T22:50:35.259Z,35.95
2018-07-09T22:52:40.665Z,35.94
2018-07-09T22:54:46.046Z,36.19
2018-07-09T22:56:52.043Z,36.95
2018-07-09T22:58:57.409Z,37.04
2018-07-09T23:01:03.338Z,36.59
2018-07-09T23:03:14.307Z,37.34
2018-07-09T23:05:19.647Z,37.47
2018-07-09T23:07:25.078Z,37.50
2018-07-09T23:10:11.910Z,37.31
2018-07-09T23:13:17.871Z,36.86
2018-07-09T23:17:44.969Z,36.87
2018-07-09T23:22:07.990Z,36.81
2018-07-09T23:24:12.098Z,37.40
2018-07-09T23:26:15.748Z,38.15
2018-07-09T23:28:19.306Z,38.15
2018-07-09T23:30:22.921Z,37.32
2018-07-09T23:32:26.508Z,38.36
2018-07-09T23:34:30.066Z,37.65
2018-07-09T23:36:33.649Z,38.45
2018-07-09T23:38:37.535Z,38.54
2018-07-09T23:40:41.255Z,38.32
2018-07-09T23:42:44.735Z,38.54
2018-07-09T23:44:48.340Z,38.49
2018-07-09T23:46:52.177Z,37.90
2018-07-09T23:48:55.643Z,37.87
2018-07-09T23:50:59.249Z,37.76
2018-07-09T23:53:02.812Z,38.67
2018-07-09T23:55:06.634Z,38.18
2018-07-09T23:58:32.884Z,38.59
